createdAt,value
2023-02-24T00:03:11.855Z,7.94
2023-02-24T00:08:19.589Z,7.95
2023-02-24T00:13:23.584Z,7.94
2023-02-24T00:18:27.437Z,7.94
2023-02-24T00:23:31.662Z,7.89
2023-02-24T00:28:36.695Z,7.87
2023-02-24T00:33:44.144Z,7.83
2023-02-24T00:38:49.136Z,7.75
2023-02-24T00:43:55.320Z,7.65
2023-02-24T00:49:04.919Z,7.57
2023-02-24T00:54:15.263Z,7.52
2023-02-24T00:59:23.700Z,7.48
2023-02-24T01:04:32.577Z,7.44
2023-02-24T01:09:36.657Z,7.42
2023-02-24T01:14:41.323Z,7.38
2023-02-24T01:19:46.917Z,7.37
2023-02-24T01:24:52.609Z,7.33
2023-02-24T01:29:57.375Z,7.35
2023-02-24T01:35:01.079Z,7.37
2023-02-24T01:40:12.219Z,7.35
2023-02-24T01:45:19.908Z,7.31
2023-02-24T01:50:27.269Z,7.25
2023-02-24T01:55:48.842Z,7.22
2023-02-24T02:00:53.030Z,7.18
2023-02-24T02:06:02.177Z,7.15
2023-02-24T02:11:09.847Z,7.12
2023-02-24T02:16:38.339Z,7.09
2023-02-24T02:22:04.241Z,7.05
2023-02-24T02:27:35.265Z,7.04
2023-02-24T02:32:55.909Z,7.05
2023-02-24T02:38:10.885Z,7.05
2023-02-24T02:43:21.227Z,7.03
2023-02-24T02:48:34.837Z,7.00
2023-02-24T02:53:58.422Z,6.97
2023-02-24T02:59:08.104Z,6.96
2023-02-24T03:04:17.516Z,6.97
2023-02-24T03:10:18.160Z,6.99
2023-02-24T03:15:45.163Z,7.00
2023-02-24T03:20:53.552Z,7.00
2023-02-24T03:26:22.077Z,7.00
2023-02-24T03:31:31.760Z,6.99
2023-02-24T03:36:37.372Z,6.96
2023-02-24T03:41:58.230Z,6.95
2023-02-24T03:47:05.128Z,6.92
2023-02-24T03:52:23.742Z,6.92
2023-02-24T03:57:55.291Z,6.93
2023-02-24T04:03:27.481Z,6.96
2023-02-24T04:08:53.272Z,6.95
2023-02-24T04:14:25.369Z,6.96
2023-02-24T04:19:33.228Z,6.98
2023-02-24T04:24:39.884Z,6.98
2023-02-24T04:29:50.773Z,7.00
2023-02-24T04:35:09.828Z,7.02
2023-02-24T04:40:19.013Z,7.03
2023-02-24T04:45:30.269Z,7.04
2023-02-24T04:50:36.861Z,7.03
2023-02-24T04:55:43.755Z,7.02
2023-02-24T05:00:53.092Z,7.03
2023-02-24T05:06:00.545Z,7.04
2023-02-24T05:11:04.727Z,7.05
2023-02-24T05:16:09.470Z,7.07
2023-02-24T05:21:34.443Z,7.07
2023-02-24T05:26:42.189Z,7.07
2023-02-24T05:31:49.661Z,7.07
2023-02-24T05:36:53.664Z,7.10
2023-02-24T05:41:58.221Z,7.12
2023-02-24T05:47:02.370Z,7.11
2023-02-24T05:52:09.942Z,7.12
2023-02-24T05:57:17.726Z,7.10
2023-02-24T06:02:28.132Z,7.08
2023-02-24T06:07:35.776Z,7.05
2023-02-24T06:12:40.439Z,6.99
2023-02-24T06:17:46.116Z,6.90
2023-02-24T06:22:54.689Z,6.81
2023-02-24T06:28:02.201Z,6.75
2023-02-24T06:33:09.818Z,6.73
2023-02-24T06:38:15.259Z,6.73
2023-02-24T06:43:19.871Z,6.74
2023-02-24T06:48:23.918Z,6.76
2023-02-24T06:53:28.249Z,6.77
2023-02-24T06:58:33.037Z,6.77
2023-02-24T07:03:40.118Z,6.75
2023-02-24T07:08:44.723Z,6.74
2023-02-24T07:13:49.811Z,6.71
2023-02-24T07:18:56.914Z,6.68
2023-02-24T07:24:04.471Z,6.64
2023-02-24T07:29:12.412Z,6.62
2023-02-24T07:34:23.722Z,6.56
2023-02-24T07:39:29.593Z,6.50
2023-02-24T07:44:33.856Z,6.45
2023-02-24T07:49:39.600Z,6.42
2023-02-24T07:54:44.635Z,6.40
2023-02-24T07:59:48.565Z,6.38
2023-02-24T08:04:52.454Z,6.35
2023-02-24T08:10:24.588Z,6.32
2023-02-24T08:15:34.557Z,6.31
2023-02-24T08:20:54.469Z,6.37
2023-02-24T08:25:58.263Z,6.43
2023-02-24T08:31:04.899Z,6.51
2023-02-24T08:36:08.876Z,6.57
2023-02-24T08:41:18.539Z,6.56
2023-02-24T08:46:33.141Z,6.50
2023-02-24T08:51:44.105Z,6.51
2023-02-24T08:56:56.479Z,6.55
2023-02-24T09:02:18.655Z,6.56
2023-02-24T09:07:26.192Z,6.58
2023-02-24T09:12:30.718Z,6.68
2023-02-24T09:17:44.396Z,6.70
2023-02-24T09:22:58.279Z,6.77
2023-02-24T09:28:17.767Z,6.89
2023-02-24T09:33:25.197Z,6.98
2023-02-24T09:38:49.338Z,7.14
2023-02-24T09:44:00.197Z,7.32
2023-02-24T09:49:14.444Z,7.34
2023-02-24T09:54:24.810Z,7.24
2023-02-24T09:59:35.030Z,7.17
2023-02-24T10:05:07.553Z,7.05
2023-02-24T10:10:20.005Z,6.92
2023-02-24T10:15:47.938Z,6.45
2023-02-24T10:20:53.834Z,6.16
2023-02-24T10:26:22.289Z,6.02
2023-02-24T10:31:58.348Z,5.96
2023-02-24T10:37:19.340Z,6.01
2023-02-24T10:42:32.616Z,6.28
2023-02-24T10:47:36.864Z,6.71
2023-02-24T10:53:19.054Z,7.01
2023-02-24T10:58:38.329Z,7.13
2023-02-24T11:04:01.408Z,7.14
2023-02-24T11:09:24.023Z,7.15
2023-02-24T11:14:46.603Z,7.15
2023-02-24T11:19:59.681Z,7.07
2023-02-24T11:25:23.126Z,7.07
2023-02-24T11:30:55.456Z,6.97
2023-02-24T11:36:31.751Z,6.92
2023-02-24T11:41:41.353Z,6.98
2023-02-24T11:46:52.853Z,7.03
2023-02-24T11:51:56.934Z,7.01
2023-02-24T11:57:00.897Z,7.00
2023-02-24T12:02:13.929Z,6.94
2023-02-24T12:07:28.493Z,7.02
2023-02-24T12:12:39.231Z,7.14
2023-02-24T12:17:59.151Z,7.30
2023-02-24T12:23:16.179Z,7.37
2023-02-24T12:28:35.036Z,7.48
2023-02-24T12:34:05.340Z,7.49
2023-02-24T12:39:16.480Z,7.63
2023-02-24T12:44:56.509Z,7.81
2023-02-24T12:50:12.736Z,8.10
2023-02-24T12:55:34.562Z,8.20
2023-02-24T13:00:51.757Z,8.26
2023-02-24T13:06:12.961Z,8.58
2023-02-24T13:11:30.251Z,8.70
2023-02-24T13:16:36.476Z,8.62
2023-02-24T13:21:41.238Z,8.50
2023-02-24T13:26:45.480Z,8.57
2023-02-24T13:31:51.672Z,8.56
2023-02-24T13:36:55.564Z,8.47
2023-02-24T13:42:29.792Z,8.58
2023-02-24T13:48:20.030Z,8.58
2023-02-24T13:53:57.795Z,8.60
2023-02-24T13:59:27.170Z,8.71
2023-02-24T14:04:33.024Z,8.72
2023-02-24T14:09:45.761Z,8.50
2023-02-24T14:14:51.289Z,8.34
2023-02-24T14:20:13.604Z,8.18
2023-02-24T14:25:19.072Z,7.94
2023-02-24T14:30:46.099Z,7.63
2023-02-24T14:35:50.565Z,7.50
2023-02-24T14:40:54.214Z,7.39
2023-02-24T14:45:58.300Z,7.30
2023-02-24T14:51:14.570Z,7.14
2023-02-24T14:56:18.933Z,6.99
2023-02-24T15:01:31.531Z,6.94
2023-02-24T15:06:41.420Z,6.83
2023-02-24T15:11:45.803Z,6.68
2023-02-24T15:16:55.944Z,6.59
2023-02-24T15:22:00.083Z,6.51
2023-02-24T15:27:28.059Z,6.44
2023-02-24T15:32:36.161Z,6.39
2023-02-24T15:37:43.060Z,6.33
2023-02-24T15:42:56.290Z,6.29
2023-02-24T15:48:01.989Z,6.26
2023-02-24T15:53:11.791Z,6.23
2023-02-24T15:58:18.603Z,6.20
2023-02-24T16:03:26.792Z,6.13
2023-02-24T16:08:50.576Z,6.07
2023-02-24T16:36:15.422Z,5.66
2023-02-24T16:41:34.452Z,5.59
2023-02-24T16:46:42.031Z,5.60
2023-02-24T16:51:55.202Z,5.62
2023-02-24T16:57:02.508Z,5.65
2023-02-24T17:02:06.362Z,5.64
2023-02-24T17:07:12.456Z,5.61
2023-02-24T17:12:21.350Z,5.53
2023-02-24T17:17:26.733Z,5.41
2023-02-24T17:22:32.145Z,5.30
2023-02-24T17:27:36.084Z,5.20
2023-02-24T17:32:40.051Z,5.13
2023-02-24T17:37:44.643Z,5.05
2023-02-24T17:42:52.319Z,4.96
2023-02-24T17:47:56.812Z,4.90
2023-02-24T17:53:03.565Z,4.84
2023-02-24T17:58:10.791Z,4.78
2023-02-24T18:03:16.472Z,4.75
2023-02-24T18:08:21.873Z,4.71
2023-02-24T18:13:32.160Z,4.65
2023-02-24T18:18:42.828Z,4.58
2023-02-24T18:23:50.017Z,4.55
2023-02-24T18:28:56.524Z,4.52
2023-02-24T18:34:03.300Z,4.50
2023-02-24T18:39:10.338Z,4.49
2023-02-24T18:44:15.222Z,4.49
2023-02-24T18:49:21.597Z,4.50
2023-02-24T18:54:28.416Z,4.50
2023-02-24T18:59:34.354Z,4.48
2023-02-24T19:04:42.599Z,4.42
2023-02-24T19:09:52.773Z,4.40
2023-02-24T19:14:58.534Z,4.41
2023-02-24T19:20:06.455Z,4.44
2023-02-24T19:25:13.802Z,4.45
2023-02-24T19:30:20.070Z,4.42
2023-02-24T19:35:26.972Z,4.38
2023-02-24T19:40:33.878Z,4.39
2023-02-24T19:45:45.727Z,4.40
2023-02-24T19:50:52.294Z,4.39
2023-02-24T19:55:59.069Z,4.35
2023-02-24T20:01:12.730Z,4.28
2023-02-24T20:06:26.369Z,4.21
2023-02-24T20:11:33.396Z,4.14
2023-02-24T20:16:41.029Z,4.09
2023-02-24T20:21:51.041Z,4.00
2023-02-24T20:41:05.685Z,3.83
2023-02-24T20:46:18.671Z,3.82
2023-02-24T20:51:25.779Z,3.77
2023-02-24T20:56:36.604Z,3.72
2023-02-24T21:01:49.857Z,3.68
2023-02-24T21:06:57.370Z,3.62
2023-02-24T21:12:06.158Z,3.62
2023-02-24T21:17:18.074Z,3.66
2023-02-24T21:22:27.229Z,3.73
2023-02-24T21:27:35.775Z,3.78
2023-02-24T21:32:40.315Z,3.83
2023-02-24T21:37:47.958Z,3.95
2023-02-24T21:42:56.775Z,4.09
2023-02-24T21:48:02.048Z,4.16
2023-02-24T21:53:09.307Z,4.18
2023-02-24T21:58:14.103Z,4.11
2023-02-24T22:03:18.721Z,4.08
2023-02-24T22:08:22.550Z,4.03
2023-02-24T22:13:27.241Z,4.02
2023-02-24T22:18:31.060Z,4.01
2023-02-24T22:23:36.223Z,4.04
2023-02-24T22:28:42.216Z,4.07
2023-02-24T22:33:47.081Z,4.12
2023-02-24T22:38:51.772Z,4.14
2023-02-24T22:43:56.816Z,4.14
2023-02-24T22:49:03.952Z,4.13
2023-02-24T22:54:10.569Z,4.10
2023-02-24T22:59:15.703Z,4.07
2023-02-24T23:04:26.085Z,4.02
2023-02-24T23:09:29.827Z,4.00
2023-02-24T23:14:33.827Z,3.95
2023-02-24T23:19:40.527Z,3.90
2023-02-24T23:24:47.785Z,3.87
2023-02-24T23:29:51.863Z,3.85
2023-02-24T23:34:56.790Z,3.80
2023-02-24T23:40:00.989Z,3.71
2023-02-24T23:45:07.022Z,3.62
2023-02-24T23:50:11.990Z,3.55
2023-02-24T23:55:16.492Z,3.51
